sensor_id;sensor_type;location;lat;lon;timestamp;P1;durP1;ratioP1;P2;durP2;ratioP2
4011;SDS011;2020;48.682;9.024;2024-03-23T00:55:28;2.87;;;2.77;;
4011;SDS011;2020;48.682;9.024;2024-03-23T00:57:54;2.57;;;2.37;;
4011;SDS011;2020;48.682;9.024;2024-03-23T01:00:19;2.97;;;2.77;;
4011;SDS011;2020;48.682;9.024;2024-03-23T01:02:44;4.00;;;2.47;;
4011;SDS011;2020;48.682;9.024;2024-03-23T01:05:09;3.70;;;2.60;;
4011;SDS011;2020;48.682;9.024;2024-03-23T01:07:35;2.47;;;2.37;;
4011;SDS011;2020;48.682;9.024;2024-03-23T01:10:00;3.73;;;2.97;;
4011;SDS011;2020;48.682;9.024;2024-03-23T01:12:25;2.03;;;2.03;;
4011;SDS011;2020;48.682;9.024;2024-03-23T01:14:51;2.83;;;2.60;;
4011;SDS011;2020;48.682;9.024;2024-03-23T01:17:16;2.40;;;2.30;;
4011;SDS011;2020;48.682;9.024;2024-03-23T01:19:41;2.40;;;2.30;;
4011;SDS011;2020;48.682;9.024;2024-03-23T01:22:07;2.10;;;2.00;;
4011;SDS011;2020;48.682;9.024;2024-03-23T01:24:34;2.70;;;2.50;;
4011;SDS011;2020;48.682;9.024;2024-03-23T01:27:00;2.93;;;2.50;;
4011;SDS011;2020;48.682;9.024;2024-03-23T01:29:25;2.70;;;2.50;;
4011;SDS011;2020;48.682;9.024;2024-03-23T01:31:50;5.53;;;2.93;;
4011;SDS011;2020;48.682;9.024;2024-03-23T01:34:16;2.77;;;2.60;;
4011;SDS011;2020;48.682;9.024;2024-03-23T01:36:41;3.10;;;3.00;;
4011;SDS011;2020;48.682;9.024;2024-03-23T01:39:07;4.63;;;2.57;;
4011;SDS011;2020;48.682;9.024;2024-03-23T01:41:34;2.70;;;2.43;;
4011;SDS011;2020;48.682;9.024;2024-03-23T01:44:00;3.10;;;3.00;;
4011;SDS011;2020;48.682;9.024;2024-03-23T01:46:30;2.17;;;2.07;;
4011;SDS011;2020;48.682;9.024;2024-03-23T01:48:55;2.70;;;2.60;;
4011;SDS011;2020;48.682;9.024;2024-03-23T01:51:21;2.30;;;2.20;;
4011;SDS011;2020;48.682;9.024;2024-03-23T01:53:46;3.13;;;2.93;;
4011;SDS011;2020;48.682;9.024;2024-03-23T01:56:11;3.60;;;3.40;;
4011;SDS011;2020;48.682;9.024;2024-03-23T01:58:38;3.00;;;2.73;;
4011;SDS011;2020;48.682;9.024;2024-03-23T02:01:03;3.10;;;3.00;;
4011;SDS011;2020;48.682;9.024;2024-03-23T02:03:29;2.37;;;2.27;;
4011;SDS011;2020;48.682;9.024;2024-03-23T02:05:54;2.80;;;2.60;;
4011;SDS011;2020;48.682;9.024;2024-03-23T02:08:22;2.80;;;2.70;;
4011;SDS011;2020;48.682;9.024;2024-03-23T02:10:48;2.50;;;2.40;;
4011;SDS011;2020;48.682;9.024;2024-03-23T02:13:14;2.40;;;2.30;;
4011;SDS011;2020;48.682;9.024;2024-03-23T02:15:41;2.17;;;2.17;;
4011;SDS011;2020;48.682;9.024;2024-03-23T02:18:09;4.77;;;2.57;;
4011;SDS011;2020;48.682;9.024;2024-03-23T02:20:35;2.97;;;2.87;;
4011;SDS011;2020;48.682;9.024;2024-03-23T02:23:00;2.50;;;2.33;;
4011;SDS011;2020;48.682;9.024;2024-03-23T02:25:26;2.10;;;2.00;;
4011;SDS011;2020;48.682;9.024;2024-03-23T02:27:51;2.17;;;2.07;;
4011;SDS011;2020;48.682;9.024;2024-03-23T02:30:19;2.27;;;2.17;;
4011;SDS011;2020;48.682;9.024;2024-03-23T02:32:44;2.20;;;2.10;;
4011;SDS011;2020;48.682;9.024;2024-03-23T02:35:09;2.00;;;2.00;;
4011;SDS011;2020;48.682;9.024;2024-03-23T02:37:34;7.73;;;2.60;;
4011;SDS011;2020;48.682;9.024;2024-03-23T02:40:00;2.20;;;2.10;;
4011;SDS011;2020;48.682;9.024;2024-03-23T02:42:25;3.10;;;2.50;;
4011;SDS011;2020;48.682;9.024;2024-03-23T02:44:50;2.47;;;2.37;;
4011;SDS011;2020;48.682;9.024;2024-03-23T02:47:16;2.83;;;2.63;;
4011;SDS011;2020;48.682;9.024;2024-03-23T02:49:41;2.83;;;2.63;;
4011;SDS011;2020;48.682;9.024;2024-03-23T02:52:06;3.10;;;2.33;;
4011;SDS011;2020;48.682;9.024;2024-03-23T02:54:31;2.90;;;2.60;;
4011;SDS011;2020;48.682;9.024;2024-03-23T02:56:57;4.00;;;2.00;;
4011;SDS011;2020;48.682;9.024;2024-03-23T02:59:22;2.60;;;2.50;;
4011;SDS011;2020;48.682;9.024;2024-03-23T03:01:47;3.37;;;3.13;;
4011;SDS011;2020;48.682;9.024;2024-03-23T03:04:12;2.60;;;2.40;;
4011;SDS011;2020;48.682;9.024;2024-03-23T03:06:38;3.10;;;2.80;;
4011;SDS011;2020;48.682;9.024;2024-03-23T03:09:03;2.50;;;2.40;;
4011;SDS011;2020;48.682;9.024;2024-03-23T03:11:29;2.03;;;1.93;;
4011;SDS011;2020;48.682;9.024;2024-03-23T03:13:54;1.80;;;1.70;;
4011;SDS011;2020;48.682;9.024;2024-03-23T03:16:20;2.67;;;2.47;;
4011;SDS011;2020;48.682;9.024;2024-03-23T03:18:45;2.00;;;1.70;;
4011;SDS011;2020;48.682;9.024;2024-03-23T03:21:11;2.93;;;2.73;;
4011;SDS011;2020;48.682;9.024;2024-03-23T03:23:37;2.53;;;2.37;;
4011;SDS011;2020;48.682;9.024;2024-03-23T03:26:03;2.20;;;2.10;;
4011;SDS011;2020;48.682;9.024;2024-03-23T03:28:28;2.30;;;2.20;;
4011;SDS011;2020;48.682;9.024;2024-03-23T03:30:56;1.93;;;1.83;;
4011;SDS011;2020;48.682;9.024;2024-03-23T03:33:22;2.13;;;2.03;;
4011;SDS011;2020;48.682;9.024;2024-03-23T03:35:47;3.60;;;1.80;;
4011;SDS011;2020;48.682;9.024;2024-03-23T03:38:12;4.87;;;2.20;;
4011;SDS011;2020;48.682;9.024;2024-03-23T03:40:37;2.70;;;2.60;;
4011;SDS011;2020;48.682;9.024;2024-03-23T03:43:03;2.20;;;2.13;;
4011;SDS011;2020;48.682;9.024;2024-03-23T03:45:28;2.33;;;2.13;;
4011;SDS011;2020;48.682;9.024;2024-03-23T03:47:53;4.27;;;2.43;;
4011;SDS011;2020;48.682;9.024;2024-03-23T03:50:19;3.20;;;2.40;;
4011;SDS011;2020;48.682;9.024;2024-03-23T03:52:46;2.97;;;2.80;;
4011;SDS011;2020;48.682;9.024;2024-03-23T03:55:13;2.60;;;2.47;;
4011;SDS011;2020;48.682;9.024;2024-03-23T03:57:39;2.73;;;2.63;;
4011;SDS011;2020;48.682;9.024;2024-03-23T04:00:04;2.47;;;2.27;;
4011;SDS011;2020;48.682;9.024;2024-03-23T04:02:30;3.23;;;3.03;;
4011;SDS011;2020;48.682;9.024;2024-03-23T04:04:56;2.50;;;2.40;;
4011;SDS011;2020;48.682;9.024;2024-03-23T04:07:21;2.53;;;2.30;;
4011;SDS011;2020;48.682;9.024;2024-03-23T04:09:47;2.40;;;2.30;;
4011;SDS011;2020;48.682;9.024;2024-03-23T04:12:13;2.30;;;2.20;;
4011;SDS011;2020;48.682;9.024;2024-03-23T04:14:38;2.50;;;2.40;;
4011;SDS011;2020;48.682;9.024;2024-03-23T04:17:04;1.90;;;1.80;;
4011;SDS011;2020;48.682;9.024;2024-03-23T04:19:29;1.70;;;1.70;;
4011;SDS011;2020;48.682;9.024;2024-03-23T04:21:54;2.03;;;2.00;;
4011;SDS011;2020;48.682;9.024;2024-03-23T04:24:19;2.40;;;2.30;;
4011;SDS011;2020;48.682;9.024;2024-03-23T04:26:47;3.43;;;2.97;;
4011;SDS011;2020;48.682;9.024;2024-03-23T04:29:12;2.40;;;2.30;;
4011;SDS011;2020;48.682;9.024;2024-03-23T04:31:37;2.40;;;2.30;;
4011;SDS011;2020;48.682;9.024;2024-03-23T04:34:03;2.30;;;2.20;;
4011;SDS011;2020;48.682;9.024;2024-03-23T04:36:28;2.63;;;2.43;;
4011;SDS011;2020;48.682;9.024;2024-03-23T04:38:53;3.00;;;2.80;;
4011;SDS011;2020;48.682;9.024;2024-03-23T04:41:19;2.23;;;2.13;;
4011;SDS011;2020;48.682;9.024;2024-03-23T04:43:44;2.17;;;2.10;;
4011;SDS011;2020;48.682;9.024;2024-03-23T04:46:09;1.87;;;1.77;;
4011;SDS011;2020;48.682;9.024;2024-03-23T04:48:35;2.77;;;2.67;;
4011;SDS011;2020;48.682;9.024;2024-03-23T04:51:01;3.37;;;3.07;;
4011;SDS011;2020;48.682;9.024;2024-03-23T04:53:26;3.67;;;3.37;;
4011;SDS011;2020;48.682;9.024;2024-03-23T04:55:55;3.17;;;2.97;;
4011;SDS011;2020;48.682;9.024;2024-03-23T04:58:22;3.73;;;3.20;;
4011;SDS011;2020;48.682;9.024;2024-03-23T05:00:48;3.37;;;3.23;;
4011;SDS011;2020;48.682;9.024;2024-03-23T05:03:18;4.23;;;4.00;;
4011;SDS011;2020;48.682;9.024;2024-03-23T05:05:44;2.30;;;2.20;;
4011;SDS011;2020;48.682;9.024;2024-03-23T05:08:09;3.40;;;2.80;;
4011;SDS011;2020;48.682;9.024;2024-03-23T05:10:34;3.33;;;3.23;;
4011;SDS011;2020;48.682;9.024;2024-03-23T05:13:00;3.70;;;3.50;;
4011;SDS011;2020;48.682;9.024;2024-03-23T05:15:26;3.67;;;3.37;;
4011;SDS011;2020;48.682;9.024;2024-03-23T05:17:51;3.67;;;3.40;;
4011;SDS011;2020;48.682;9.024;2024-03-23T05:20:16;4.60;;;4.30;;
4011;SDS011;2020;48.682;9.024;2024-03-23T05:22:43;3.57;;;3.37;;
4011;SDS011;2020;48.682;9.024;2024-03-23T05:25:08;8.17;;;5.97;;
4011;SDS011;2020;48.682;9.024;2024-03-23T05:27:34;6.43;;;5.83;;
4011;SDS011;2020;48.682;9.024;2024-03-23T05:30:00;8.03;;;6.20;;
4011;SDS011;2020;48.682;9.024;2024-03-23T05:32:25;7.30;;;6.40;;
4011;SDS011;2020;48.682;9.024;2024-03-23T05:34:50;6.97;;;6.37;;
4011;SDS011;2020;48.682;9.024;2024-03-23T05:37:20;7.67;;;6.60;;
4011;SDS011;2020;48.682;9.024;2024-03-23T05:39:46;6.57;;;5.90;;
4011;SDS011;2020;48.682;9.024;2024-03-23T05:42:13;8.93;;;6.43;;
4011;SDS011;2020;48.682;9.024;2024-03-23T05:44:39;8.47;;;5.70;;
4011;SDS011;2020;48.682;9.024;2024-03-23T05:47:04;7.43;;;6.63;;
4011;SDS011;2020;48.682;9.024;2024-03-23T05:49:30;5.40;;;4.90;;
4011;SDS011;2020;48.682;9.024;2024-03-23T05:51:55;7.83;;;6.10;;
4011;SDS011;2020;48.682;9.024;2024-03-23T05:54:20;10.03;;;5.67;;
4011;SDS011;2020;48.682;9.024;2024-03-23T05:56:46;6.47;;;5.10;;
4011;SDS011;2020;48.682;9.024;2024-03-23T05:59:11;7.43;;;5.77;;
4011;SDS011;2020;48.682;9.024;2024-03-23T06:01:36;6.80;;;5.90;;
4011;SDS011;2020;48.682;9.024;2024-03-23T06:04:03;6.53;;;5.77;;
4011;SDS011;2020;48.682;9.024;2024-03-23T06:06:29;5.90;;;5.40;;
4011;SDS011;2020;48.682;9.024;2024-03-23T06:08:55;6.20;;;4.27;;
4011;SDS011;2020;48.682;9.024;2024-03-23T06:11:20;6.43;;;4.43;;
4011;SDS011;2020;48.682;9.024;2024-03-23T06:13:46;4.17;;;3.87;;
4011;SDS011;2020;48.682;9.024;2024-03-23T06:16:11;2.87;;;2.27;;
4011;SDS011;2020;48.682;9.024;2024-03-23T06:18:36;11.13;;;2.97;;
4011;SDS011;2020;48.682;9.024;2024-03-23T06:21:01;3.70;;;2.30;;
4011;SDS011;2020;48.682;9.024;2024-03-23T06:23:27;2.70;;;2.50;;
4011;SDS011;2020;48.682;9.024;2024-03-23T06:25:52;2.10;;;2.00;;
4011;SDS011;2020;48.682;9.024;2024-03-23T06:28:17;2.43;;;1.80;;
4011;SDS011;2020;48.682;9.024;2024-03-23T06:30:43;1.93;;;1.83;;
4011;SDS011;2020;48.682;9.024;2024-03-23T06:33:08;1.57;;;1.47;;
4011;SDS011;2020;48.682;9.024;2024-03-23T06:35:33;1.10;;;1.00;;
4011;SDS011;2020;48.682;9.024;2024-03-23T06:37:59;1.30;;;1.23;;
4011;SDS011;2020;48.682;9.024;2024-03-23T06:40:24;1.00;;;0.80;;
4011;SDS011;2020;48.682;9.024;2024-03-23T06:42:49;1.60;;;1.50;;
4011;SDS011;2020;48.682;9.024;2024-03-23T06:45:14;1.33;;;1.33;;
4011;SDS011;2020;48.682;9.024;2024-03-23T06:47:40;0.50;;;0.50;;
4011;SDS011;2020;48.682;9.024;2024-03-23T06:50:05;0.70;;;0.70;;
4011;SDS011;2020;48.682;9.024;2024-03-23T06:52:31;0.50;;;0.50;;
4011;SDS011;2020;48.682;9.024;2024-03-23T06:54:57;0.50;;;0.50;;
4011;SDS011;2020;48.682;9.024;2024-03-23T06:57:23;0.77;;;0.77;;
4011;SDS011;2020;48.682;9.024;2024-03-23T06:59:48;0.50;;;0.50;;
4011;SDS011;2020;48.682;9.024;2024-03-23T07:02:14;0.50;;;0.50;;
4011;SDS011;2020;48.682;9.024;2024-03-23T07:04:39;0.70;;;0.70;;
4011;SDS011;2020;48.682;9.024;2024-03-23T07:07:04;0.60;;;0.60;;
4011;SDS011;2020;48.682;9.024;2024-03-23T07:09:30;0.60;;;0.60;;
4011;SDS011;2020;48.682;9.024;2024-03-23T07:11:56;4.70;;;1.17;;
4011;SDS011;2020;48.682;9.024;2024-03-23T07:14:22;0.47;;;0.47;;
4011;SDS011;2020;48.682;9.024;2024-03-23T07:16:49;0.40;;;0.40;;
4011;SDS011;2020;48.682;9.024;2024-03-23T07:19:15;0.50;;;0.50;;
4011;SDS011;2020;48.682;9.024;2024-03-23T07:21:41;0.50;;;0.50;;
4011;SDS011;2020;48.682;9.024;2024-03-23T07:24:07;0.73;;;0.50;;
4011;SDS011;2020;48.682;9.024;2024-03-23T07:26:32;0.40;;;0.40;;
4011;SDS011;2020;48.682;9.024;2024-03-23T07:28:57;0.40;;;0.40;;
4011;SDS011;2020;48.682;9.024;2024-03-23T07:31:23;0.37;;;0.37;;
4011;SDS011;2020;48.682;9.024;2024-03-23T07:33:49;0.50;;;0.40;;
4011;SDS011;2020;48.682;9.024;2024-03-23T07:36:14;0.50;;;0.50;;
4011;SDS011;2020;48.682;9.024;2024-03-23T07:38:40;0.33;;;0.33;;
4011;SDS011;2020;48.682;9.024;2024-03-23T07:41:07;0.40;;;0.40;;
4011;SDS011;2020;48.682;9.024;2024-03-23T07:43:37;0.50;;;0.50;;
4011;SDS011;2020;48.682;9.024;2024-03-23T07:46:04;0.40;;;0.40;;
4011;SDS011;2020;48.682;9.024;2024-03-23T07:48:30;0.40;;;0.40;;
4011;SDS011;2020;48.682;9.024;2024-03-23T07:51:03;0.40;;;0.40;;
4011;SDS011;2020;48.682;9.024;2024-03-23T07:53:29;0.37;;;0.37;;
4011;SDS011;2020;48.682;9.024;2024-03-23T07:55:55;0.40;;;0.40;;
4011;SDS011;2020;48.682;9.024;2024-03-23T07:58:22;0.40;;;0.40;;
4011;SDS011;2020;48.682;9.024;2024-03-23T08:00:48;0.40;;;0.40;;
4011;SDS011;2020;48.682;9.024;2024-03-23T08:03:13;0.40;;;0.40;;
4011;SDS011;2020;48.682;9.024;2024-03-23T08:05:38;0.50;;;0.50;;
4011;SDS011;2020;48.682;9.024;2024-03-23T08:08:04;0.40;;;0.40;;
4011;SDS011;2020;48.682;9.024;2024-03-23T08:10:29;0.37;;;0.37;;
4011;SDS011;2020;48.682;9.024;2024-03-23T08:12:54;0.50;;;0.43;;
4011;SDS011;2020;48.682;9.024;2024-03-23T08:15:19;0.40;;;0.40;;
4011;SDS011;2020;48.682;9.024;2024-03-23T08:17:45;0.50;;;0.50;;
4011;SDS011;2020;48.682;9.024;2024-03-23T08:20:10;0.50;;;0.50;;
4011;SDS011;2020;48.682;9.024;2024-03-23T08:22:35;0.50;;;0.50;;
4011;SDS011;2020;48.682;9.024;2024-03-23T08:25:01;0.50;;;0.50;;
4011;SDS011;2020;48.682;9.024;2024-03-23T08:27:26;0.90;;;0.90;;
4011;SDS011;2020;48.682;9.024;2024-03-23T08:29:51;0.70;;;0.70;;
4011;SDS011;2020;48.682;9.024;2024-03-23T08:32:16;0.73;;;0.73;;
4011;SDS011;2020;48.682;9.024;2024-03-23T08:34:42;0.63;;;0.63;;
4011;SDS011;2020;48.682;9.024;2024-03-23T08:37:07;0.50;;;0.50;;
4011;SDS011;2020;48.682;9.024;2024-03-23T08:39:32;0.73;;;0.60;;
4011;SDS011;2020;48.682;9.024;2024-03-23T08:41:58;1.00;;;0.90;;
4011;SDS011;2020;48.682;9.024;2024-03-23T08:44:23;1.53;;;0.80;;
4011;SDS011;2020;48.682;9.024;2024-03-23T08:46:48;4.53;;;1.00;;
4011;SDS011;2020;48.682;9.024;2024-03-23T08:49:13;1.07;;;0.97;;
4011;SDS011;2020;48.682;9.024;2024-03-23T08:51:39;0.90;;;0.80;;
4011;SDS011;2020;48.682;9.024;2024-03-23T08:54:04;0.70;;;0.70;;
4011;SDS011;2020;48.682;9.024;2024-03-23T08:56:30;1.27;;;0.80;;
4011;SDS011;2020;48.682;9.024;2024-03-23T08:58:55;0.90;;;0.90;;
4011;SDS011;2020;48.682;9.024;2024-03-23T09:01:20;1.90;;;1.43;;
4011;SDS011;2020;48.682;9.024;2024-03-23T09:03:45;1.30;;;1.20;;
4011;SDS011;2020;48.682;9.024;2024-03-23T09:06:12;2.03;;;1.67;;
4011;SDS011;2020;48.682;9.024;2024-03-23T09:08:38;1.77;;;1.67;;
4011;SDS011;2020;48.682;9.024;2024-03-23T09:11:10;4.40;;;1.60;;
4011;SDS011;2020;48.682;9.024;2024-03-23T09:13:37;2.27;;;2.07;;
4011;SDS011;2020;48.682;9.024;2024-03-23T09:16:03;1.97;;;1.87;;
4011;SDS011;2020;48.682;9.024;2024-03-23T09:18:31;2.10;;;2.00;;
4011;SDS011;2020;48.682;9.024;2024-03-23T09:20:57;2.07;;;1.93;;
4011;SDS011;2020;48.682;9.024;2024-03-23T09:23:23;2.03;;;1.90;;
4011;SDS011;2020;48.682;9.024;2024-03-23T09:25:48;1.70;;;1.60;;
4011;SDS011;2020;48.682;9.024;2024-03-23T09:28:13;3.43;;;1.60;;
4011;SDS011;2020;48.682;9.024;2024-03-23T09:30:38;2.60;;;2.40;;
4011;SDS011;2020;48.682;9.024;2024-03-23T09:33:07;3.40;;;2.30;;
4011;SDS011;2020;48.682;9.024;2024-03-23T09:35:36;2.07;;;1.97;;
4011;SDS011;2020;48.682;9.024;2024-03-23T09:38:02;3.80;;;2.60;;
4011;SDS011;2020;48.682;9.024;2024-03-23T09:40:27;2.40;;;2.07;;
4011;SDS011;2020;48.682;9.024;2024-03-23T09:42:52;2.30;;;2.17;;
4011;SDS011;2020;48.682;9.024;2024-03-23T09:45:20;2.13;;;2.03;;
4011;SDS011;2020;48.682;9.024;2024-03-23T09:47:47;2.47;;;2.10;;
4011;SDS011;2020;48.682;9.024;2024-03-23T09:50:13;2.77;;;2.23;;
4011;SDS011;2020;48.682;9.024;2024-03-23T09:52:39;2.40;;;1.63;;
4011;SDS011;2020;48.682;9.024;2024-03-23T09:55:05;2.20;;;2.00;;
4011;SDS011;2020;48.682;9.024;2024-03-23T09:57:30;4.20;;;2.57;;
4011;SDS011;2020;48.682;9.024;2024-03-23T09:59:56;3.53;;;2.63;;
4011;SDS011;2020;48.682;9.024;2024-03-23T10:02:23;3.70;;;2.13;;
4011;SDS011;2020;48.682;9.024;2024-03-23T10:04:49;10.20;;;2.70;;
4011;SDS011;2020;48.682;9.024;2024-03-23T10:07:21;4.10;;;2.53;;
4011;SDS011;2020;48.682;9.024;2024-03-23T10:09:49;5.93;;;2.80;;
4011;SDS011;2020;48.682;9.024;2024-03-23T10:12:18;3.50;;;2.43;;
4011;SDS011;2020;48.682;9.024;2024-03-23T10:14:44;2.07;;;1.97;;
4011;SDS011;2020;48.682;9.024;2024-03-23T10:17:14;8.10;;;1.57;;
4011;SDS011;2020;48.682;9.024;2024-03-23T10:19:50;5.60;;;2.90;;
4011;SDS011;2020;48.682;9.024;2024-03-23T10:22:18;3.57;;;1.97;;
4011;SDS011;2020;48.682;9.024;2024-03-23T10:24:44;2.93;;;1.73;;
4011;SDS011;2020;48.682;9.024;2024-03-23T10:27:14;2.00;;;1.90;;
4011;SDS011;2020;48.682;9.024;2024-03-23T10:29:42;2.93;;;1.70;;
4011;SDS011;2020;48.682;9.024;2024-03-23T10:32:08;3.60;;;1.83;;
4011;SDS011;2020;48.682;9.024;2024-03-23T10:34:37;7.53;;;1.97;;
4011;SDS011;2020;48.682;9.024;2024-03-23T10:37:03;2.97;;;2.77;;
4011;SDS011;2020;48.682;9.024;2024-03-23T10:39:33;2.83;;;2.60;;
4011;SDS011;2020;48.682;9.024;2024-03-23T10:42:03;6.43;;;2.63;;
4011;SDS011;2020;48.682;9.024;2024-03-23T10:44:30;3.30;;;2.30;;
4011;SDS011;2020;48.682;9.024;2024-03-23T10:46:59;2.60;;;2.40;;
4011;SDS011;2020;48.682;9.024;2024-03-23T10:49:29;6.40;;;2.10;;
4011;SDS011;2020;48.682;9.024;2024-03-23T10:51:58;1.90;;;1.40;;
4011;SDS011;2020;48.682;9.024;2024-03-23T10:54:30;3.83;;;1.50;;
4011;SDS011;2020;48.682;9.024;2024-03-23T10:57:02;1.40;;;1.00;;
4011;SDS011;2020;48.682;9.024;2024-03-23T10:59:28;0.97;;;0.90;;
4011;SDS011;2020;48.682;9.024;2024-03-23T11:01:55;3.30;;;1.67;;
4011;SDS011;2020;48.682;9.024;2024-03-23T11:04:34;1.43;;;1.43;;
4011;SDS011;2020;48.682;9.024;2024-03-23T11:07:01;2.37;;;2.00;;
4011;SDS011;2020;48.682;9.024;2024-03-23T11:09:40;3.10;;;1.90;;
4011;SDS011;2020;48.682;9.024;2024-03-23T11:14:43;2.47;;;2.00;;
4011;SDS011;2020;48.682;9.024;2024-03-23T11:17:08;2.67;;;1.20;;
4011;SDS011;2020;48.682;9.024;2024-03-23T11:19:35;1.73;;;1.00;;
4011;SDS011;2020;48.682;9.024;2024-03-23T11:22:01;1.80;;;1.73;;
4011;SDS011;2020;48.682;9.024;2024-03-23T11:24:28;2.20;;;1.97;;
4011;SDS011;2020;48.682;9.024;2024-03-23T11:26:53;1.77;;;1.70;;
4011;SDS011;2020;48.682;9.024;2024-03-23T11:29:19;2.70;;;1.33;;
4011;SDS011;2020;48.682;9.024;2024-03-23T11:34:19;6.27;;;1.33;;
4011;SDS011;2020;48.682;9.024;2024-03-23T11:36:45;2.00;;;1.57;;
4011;SDS011;2020;48.682;9.024;2024-03-23T11:39:18;1.73;;;1.07;;
4011;SDS011;2020;48.682;9.024;2024-03-23T11:41:45;3.13;;;2.07;;
4011;SDS011;2020;48.682;9.024;2024-03-23T11:44:17;1.97;;;1.57;;
4011;SDS011;2020;48.682;9.024;2024-03-23T11:46:43;1.93;;;1.13;;
4011;SDS011;2020;48.682;9.024;2024-03-23T11:49:24;2.80;;;1.20;;
4011;SDS011;2020;48.682;9.024;2024-03-23T11:51:51;1.40;;;1.40;;
4011;SDS011;2020;48.682;9.024;2024-03-23T11:54:25;1.30;;;1.00;;
4011;SDS011;2020;48.682;9.024;2024-03-23T11:56:58;1.40;;;1.27;;
4011;SDS011;2020;48.682;9.024;2024-03-23T11:59:31;2.07;;;0.80;;
4011;SDS011;2020;48.682;9.024;2024-03-23T12:01:57;0.83;;;0.83;;
4011;SDS011;2020;48.682;9.024;2024-03-23T12:04:25;3.17;;;1.10;;
4011;SDS011;2020;48.682;9.024;2024-03-23T12:09:39;1.33;;;0.90;;
4011;SDS011;2020;48.682;9.024;2024-03-23T12:12:08;4.53;;;1.23;;
4011;SDS011;2020;48.682;9.024;2024-03-23T12:14:43;2.30;;;0.87;;
4011;SDS011;2020;48.682;9.024;2024-03-23T12:17:26;5.13;;;1.43;;
4011;SDS011;2020;48.682;9.024;2024-03-23T12:19:51;2.73;;;0.90;;
4011;SDS011;2020;48.682;9.024;2024-03-23T12:22:20;2.13;;;1.40;;
4011;SDS011;2020;48.682;9.024;2024-03-23T12:24:45;1.87;;;0.97;;
4011;SDS011;2020;48.682;9.024;2024-03-23T12:27:11;1.03;;;1.03;;
4011;SDS011;2020;48.682;9.024;2024-03-23T12:29:36;1.83;;;1.53;;
4011;SDS011;2020;48.682;9.024;2024-03-23T12:32:04;2.60;;;1.60;;
4011;SDS011;2020;48.682;9.024;2024-03-23T12:34:29;5.13;;;1.43;;
4011;SDS011;2020;48.682;9.024;2024-03-23T12:36:55;7.03;;;1.80;;
4011;SDS011;2020;48.682;9.024;2024-03-23T12:39:21;4.37;;;2.10;;
4011;SDS011;2020;48.682;9.024;2024-03-23T12:41:47;1.87;;;1.50;;
4011;SDS011;2020;48.682;9.024;2024-03-23T12:44:15;3.43;;;1.97;;
4011;SDS011;2020;48.682;9.024;2024-03-23T12:46:43;2.50;;;1.70;;
4011;SDS011;2020;48.682;9.024;2024-03-23T12:49:08;2.40;;;1.70;;
4011;SDS011;2020;48.682;9.024;2024-03-23T12:51:33;8.30;;;1.77;;
4011;SDS011;2020;48.682;9.024;2024-03-23T12:53:59;7.03;;;2.03;;
4011;SDS011;2020;48.682;9.024;2024-03-23T12:56:24;3.37;;;1.20;;
4011;SDS011;2020;48.682;9.024;2024-03-23T12:58:50;2.70;;;1.70;;
4011;SDS011;2020;48.682;9.024;2024-03-23T13:01:19;4.27;;;1.70;;
4011;SDS011;2020;48.682;9.024;2024-03-23T13:03:47;4.63;;;2.07;;
4011;SDS011;2020;48.682;9.024;2024-03-23T13:06:13;4.80;;;2.50;;
4011;SDS011;2020;48.682;9.024;2024-03-23T13:08:39;2.43;;;2.33;;
4011;SDS011;2020;48.682;9.024;2024-03-23T13:11:05;1.47;;;1.37;;
4011;SDS011;2020;48.682;9.024;2024-03-23T13:13:33;4.73;;;0.80;;
4011;SDS011;2020;48.682;9.024;2024-03-23T13:15:59;1.60;;;1.07;;
4011;SDS011;2020;48.682;9.024;2024-03-23T13:18:24;1.23;;;0.80;;
4011;SDS011;2020;48.682;9.024;2024-03-23T13:20:49;0.70;;;0.70;;
4011;SDS011;2020;48.682;9.024;2024-03-23T13:23:14;0.60;;;0.43;;
4011;SDS011;2020;48.682;9.024;2024-03-23T13:25:40;0.57;;;0.57;;
4011;SDS011;2020;48.682;9.024;2024-03-23T13:28:05;0.57;;;0.57;;
4011;SDS011;2020;48.682;9.024;2024-03-23T13:30:30;0.60;;;0.60;;
4011;SDS011;2020;48.682;9.024;2024-03-23T13:32:56;0.50;;;0.50;;
4011;SDS011;2020;48.682;9.024;2024-03-23T13:35:21;2.40;;;0.60;;
4011;SDS011;2020;48.682;9.024;2024-03-23T13:37:47;0.70;;;0.70;;
4011;SDS011;2020;48.682;9.024;2024-03-23T13:40:13;0.73;;;0.70;;
4011;SDS011;2020;48.682;9.024;2024-03-23T13:42:38;0.67;;;0.60;;
4011;SDS011;2020;48.682;9.024;2024-03-23T13:45:03;7.03;;;1.30;;
4011;SDS011;2020;48.682;9.024;2024-03-23T13:47:29;0.70;;;0.70;;
4011;SDS011;2020;48.682;9.024;2024-03-23T13:49:54;1.50;;;1.13;;
4011;SDS011;2020;48.682;9.024;2024-03-23T13:52:20;1.10;;;1.10;;
4011;SDS011;2020;48.682;9.024;2024-03-23T13:54:48;2.93;;;1.03;;
4011;SDS011;2020;48.682;9.024;2024-03-23T13:57:13;0.80;;;0.80;;
4011;SDS011;2020;48.682;9.024;2024-03-23T13:59:38;1.60;;;1.47;;
4011;SDS011;2020;48.682;9.024;2024-03-23T14:02:04;1.80;;;0.83;;
4011;SDS011;2020;48.682;9.024;2024-03-23T14:04:29;1.47;;;0.80;;
4011;SDS011;2020;48.682;9.024;2024-03-23T14:06:54;2.37;;;0.83;;
4011;SDS011;2020;48.682;9.024;2024-03-23T14:09:20;7.30;;;0.90;;
4011;SDS011;2020;48.682;9.024;2024-03-23T14:11:50;0.80;;;0.80;;
4011;SDS011;2020;48.682;9.024;2024-03-23T14:14:15;0.60;;;0.60;;
4011;SDS011;2020;48.682;9.024;2024-03-23T14:16:42;0.70;;;0.70;;
4011;SDS011;2020;48.682;9.024;2024-03-23T14:19:07;0.60;;;0.60;;
4011;SDS011;2020;48.682;9.024;2024-03-23T14:21:33;1.80;;;0.60;;
4011;SDS011;2020;48.682;9.024;2024-03-23T14:23:59;1.57;;;1.07;;
4011;SDS011;2020;48.682;9.024;2024-03-23T14:26:25;1.17;;;1.10;;
4011;SDS011;2020;48.682;9.024;2024-03-23T14:28:51;1.30;;;0.73;;
4011;SDS011;2020;48.682;9.024;2024-03-23T14:31:16;3.80;;;0.90;;
4011;SDS011;2020;48.682;9.024;2024-03-23T14:33:42;2.83;;;1.13;;
4011;SDS011;2020;48.682;9.024;2024-03-23T14:36:11;1.10;;;1.00;;
4011;SDS011;2020;48.682;9.024;2024-03-23T14:38:37;0.60;;;0.60;;
4011;SDS011;2020;48.682;9.024;2024-03-23T14:41:03;3.37;;;1.13;;
4011;SDS011;2020;48.682;9.024;2024-03-23T14:43:29;2.73;;;0.87;;
4011;SDS011;2020;48.682;9.024;2024-03-23T14:46:07;3.90;;;1.03;;
4011;SDS011;2020;48.682;9.024;2024-03-23T14:48:36;1.37;;;0.70;;
4011;SDS011;2020;48.682;9.024;2024-03-23T14:51:02;0.73;;;0.70;;
4011;SDS011;2020;48.682;9.024;2024-03-23T14:53:33;1.90;;;1.17;;
4011;SDS011;2020;48.682;9.024;2024-03-23T14:55:59;2.83;;;0.77;;
4011;SDS011;2020;48.682;9.024;2024-03-23T14:58:26;2.63;;;1.00;;
4011;SDS011;2020;48.682;9.024;2024-03-23T15:00:51;2.87;;;0.90;;
4011;SDS011;2020;48.682;9.024;2024-03-23T15:03:19;1.13;;;0.80;;
4011;SDS011;2020;48.682;9.024;2024-03-23T15:05:57;0.70;;;0.70;;
4011;SDS011;2020;48.682;9.024;2024-03-23T15:08:25;0.70;;;0.70;;
4011;SDS011;2020;48.682;9.024;2024-03-23T15:10:50;0.80;;;0.80;;
4011;SDS011;2020;48.682;9.024;2024-03-23T15:13:16;0.97;;;0.77;;
4011;SDS011;2020;48.682;9.024;2024-03-23T15:15:42;2.57;;;0.90;;
4011;SDS011;2020;48.682;9.024;2024-03-23T15:18:10;0.67;;;0.67;;
4011;SDS011;2020;48.682;9.024;2024-03-23T15:20:39;6.93;;;0.80;;
4011;SDS011;2020;48.682;9.024;2024-03-23T15:23:05;0.50;;;0.50;;
4011;SDS011;2020;48.682;9.024;2024-03-23T15:25:31;1.50;;;0.90;;
4011;SDS011;2020;48.682;9.024;2024-03-23T15:27:57;2.03;;;0.73;;
4011;SDS011;2020;48.682;9.024;2024-03-23T15:30:23;0.70;;;0.50;;
4011;SDS011;2020;48.682;9.024;2024-03-23T15:32:48;1.40;;;0.97;;
4011;SDS011;2020;48.682;9.024;2024-03-23T15:35:13;1.93;;;1.23;;
4011;SDS011;2020;48.682;9.024;2024-03-23T15:37:39;4.63;;;1.00;;
4011;SDS011;2020;48.682;9.024;2024-03-23T15:40:05;1.03;;;0.70;;
4011;SDS011;2020;48.682;9.024;2024-03-23T15:42:31;0.60;;;0.60;;
4011;SDS011;2020;48.682;9.024;2024-03-23T15:44:57;1.73;;;1.53;;
4011;SDS011;2020;48.682;9.024;2024-03-23T15:47:22;1.20;;;1.10;;
4011;SDS011;2020;48.682;9.024;2024-03-23T15:49:48;1.57;;;0.70;;
4011;SDS011;2020;48.682;9.024;2024-03-23T15:52:14;0.80;;;0.80;;
4011;SDS011;2020;48.682;9.024;2024-03-23T15:54:40;0.87;;;0.60;;
4011;SDS011;2020;48.682;9.024;2024-03-23T15:57:05;2.13;;;1.00;;
4011;SDS011;2020;48.682;9.024;2024-03-23T15:59:32;0.53;;;0.53;;
4011;SDS011;2020;48.682;9.024;2024-03-23T16:01:57;0.60;;;0.60;;
4011;SDS011;2020;48.682;9.024;2024-03-23T16:04:22;1.97;;;0.50;;
4011;SDS011;2020;48.682;9.024;2024-03-23T16:06:48;1.03;;;1.03;;
4011;SDS011;2020;48.682;9.024;2024-03-23T16:09:13;2.10;;;0.60;;
4011;SDS011;2020;48.682;9.024;2024-03-23T16:11:39;2.30;;;0.73;;